sensor_id;sensor_type;location;lat;lon;timestamp;P1;durP1;ratioP1;P2;durP2;ratioP2
21114;SDS011;10715;48.546;9.896;2023-08-21T00:01:15;6.13;;;5.60;;
21114;SDS011;10715;48.546;9.896;2023-08-21T00:03:40;6.87;;;6.20;;
21114;SDS011;10715;48.546;9.896;2023-08-21T00:06:06;12.20;;;6.67;;
21114;SDS011;10715;48.546;9.896;2023-08-21T00:08:32;7.63;;;6.77;;
21114;SDS011;10715;48.546;9.896;2023-08-21T00:10:57;7.50;;;6.80;;
21114;SDS011;10715;48.546;9.896;2023-08-21T00:13:23;7.20;;;6.60;;
21114;SDS011;10715;48.546;9.896;2023-08-21T00:15:49;12.23;;;7.23;;
21114;SDS011;10715;48.546;9.896;2023-08-21T00:18:14;16.27;;;6.53;;
21114;SDS011;10715;48.546;9.896;2023-08-21T00:20:40;7.93;;;6.63;;
21114;SDS011;10715;48.546;9.896;2023-08-21T00:23:07;7.43;;;6.73;;
21114;SDS011;10715;48.546;9.896;2023-08-21T00:25:34;8.47;;;7.70;;
21114;SDS011;10715;48.546;9.896;2023-08-21T00:28:00;11.60;;;6.00;;
21114;SDS011;10715;48.546;9.896;2023-08-21T00:30:25;6.23;;;5.73;;
21114;SDS011;10715;48.546;9.896;2023-08-21T00:32:51;6.47;;;5.97;;
21114;SDS011;10715;48.546;9.896;2023-08-21T00:35:17;7.33;;;6.63;;
21114;SDS011;10715;48.546;9.896;2023-08-21T00:37:43;7.10;;;6.60;;
21114;SDS011;10715;48.546;9.896;2023-08-21T00:40:08;7.50;;;6.80;;
21114;SDS011;10715;48.546;9.896;2023-08-21T00:42:34;6.67;;;5.70;;
21114;SDS011;10715;48.546;9.896;2023-08-21T00:45:00;8.47;;;6.83;;
21114;SDS011;10715;48.546;9.896;2023-08-21T00:47:26;8.60;;;6.40;;
21114;SDS011;10715;48.546;9.896;2023-08-21T00:49:52;7.93;;;6.83;;
21114;SDS011;10715;48.546;9.896;2023-08-21T00:52:17;13.23;;;5.87;;
21114;SDS011;10715;48.546;9.896;2023-08-21T00:54:43;8.37;;;6.67;;
21114;SDS011;10715;48.546;9.896;2023-08-21T00:57:09;6.30;;;5.70;;
21114;SDS011;10715;48.546;9.896;2023-08-21T00:59:36;7.20;;;6.60;;
21114;SDS011;10715;48.546;9.896;2023-08-21T01:02:03;7.10;;;6.50;;
21114;SDS011;10715;48.546;9.896;2023-08-21T01:04:29;7.20;;;6.50;;
21114;SDS011;10715;48.546;9.896;2023-08-21T01:06:54;6.33;;;5.67;;
21114;SDS011;10715;48.546;9.896;2023-08-21T01:12:50;9.03;;;6.80;;
21114;SDS011;10715;48.546;9.896;2023-08-21T01:15:43;6.03;;;5.53;;
21114;SDS011;10715;48.546;9.896;2023-08-21T01:18:10;8.47;;;6.87;;
21114;SDS011;10715;48.546;9.896;2023-08-21T01:20:37;9.57;;;6.57;;
21114;SDS011;10715;48.546;9.896;2023-08-21T01:23:04;7.20;;;6.60;;
21114;SDS011;10715;48.546;9.896;2023-08-21T01:25:32;6.97;;;6.40;;
21114;SDS011;10715;48.546;9.896;2023-08-21T01:27:58;7.80;;;5.50;;
21114;SDS011;10715;48.546;9.896;2023-08-21T01:30:25;13.23;;;6.30;;
21114;SDS011;10715;48.546;9.896;2023-08-21T01:33:01;7.27;;;6.70;;
21114;SDS011;10715;48.546;9.896;2023-08-21T01:35:33;7.67;;;6.97;;
21114;SDS011;10715;48.546;9.896;2023-08-21T01:38:00;6.53;;;6.13;;
21114;SDS011;10715;48.546;9.896;2023-08-21T01:40:27;8.43;;;6.27;;
21114;SDS011;10715;48.546;9.896;2023-08-21T01:42:53;10.60;;;6.80;;
21114;SDS011;10715;48.546;9.896;2023-08-21T01:45:19;5.80;;;5.27;;
21114;SDS011;10715;48.546;9.896;2023-08-21T01:47:45;6.80;;;6.20;;
21114;SDS011;10715;48.546;9.896;2023-08-21T01:50:11;7.60;;;6.90;;
21114;SDS011;10715;48.546;9.896;2023-08-21T01:52:36;10.37;;;6.60;;
21114;SDS011;10715;48.546;9.896;2023-08-21T01:55:02;6.33;;;5.93;;
21114;SDS011;10715;48.546;9.896;2023-08-21T01:57:28;5.83;;;5.33;;
21114;SDS011;10715;48.546;9.896;2023-08-21T01:59:54;6.50;;;5.60;;
21114;SDS011;10715;48.546;9.896;2023-08-21T02:02:20;7.00;;;6.30;;
21114;SDS011;10715;48.546;9.896;2023-08-21T02:04:45;10.17;;;6.73;;
21114;SDS011;10715;48.546;9.896;2023-08-21T02:07:11;7.07;;;6.47;;
21114;SDS011;10715;48.546;9.896;2023-08-21T02:09:37;6.30;;;5.90;;
21114;SDS011;10715;48.546;9.896;2023-08-21T02:12:03;7.70;;;6.13;;
21114;SDS011;10715;48.546;9.896;2023-08-21T02:14:29;6.87;;;6.10;;
21114;SDS011;10715;48.546;9.896;2023-08-21T02:16:54;11.60;;;5.80;;
21114;SDS011;10715;48.546;9.896;2023-08-21T02:19:20;8.13;;;6.63;;
21114;SDS011;10715;48.546;9.896;2023-08-21T02:21:46;7.93;;;6.03;;
21114;SDS011;10715;48.546;9.896;2023-08-21T02:24:11;5.73;;;5.40;;
21114;SDS011;10715;48.546;9.896;2023-08-21T02:26:37;8.93;;;5.93;;
21114;SDS011;10715;48.546;9.896;2023-08-21T02:29:02;6.67;;;6.10;;
21114;SDS011;10715;48.546;9.896;2023-08-21T02:31:28;19.63;;;6.90;;
21114;SDS011;10715;48.546;9.896;2023-08-21T02:33:54;7.93;;;6.13;;
21114;SDS011;10715;48.546;9.896;2023-08-21T02:36:20;6.60;;;6.10;;
21114;SDS011;10715;48.546;9.896;2023-08-21T02:38:45;7.13;;;6.30;;
21114;SDS011;10715;48.546;9.896;2023-08-21T02:41:11;7.13;;;6.23;;
21114;SDS011;10715;48.546;9.896;2023-08-21T02:43:37;7.00;;;5.53;;
21114;SDS011;10715;48.546;9.896;2023-08-21T02:46:02;12.43;;;6.83;;
21114;SDS011;10715;48.546;9.896;2023-08-21T02:48:28;6.73;;;6.23;;
21114;SDS011;10715;48.546;9.896;2023-08-21T02:50:54;6.87;;;6.23;;
21114;SDS011;10715;48.546;9.896;2023-08-21T02:53:19;8.67;;;7.47;;
21114;SDS011;10715;48.546;9.896;2023-08-21T02:55:45;7.10;;;6.50;;
21114;SDS011;10715;48.546;9.896;2023-08-21T02:58:11;6.33;;;5.80;;
21114;SDS011;10715;48.546;9.896;2023-08-21T03:00:37;6.87;;;6.27;;
21114;SDS011;10715;48.546;9.896;2023-08-21T03:03:03;7.77;;;7.07;;
21114;SDS011;10715;48.546;9.896;2023-08-21T03:05:29;9.00;;;8.10;;
21114;SDS011;10715;48.546;9.896;2023-08-21T03:07:55;6.17;;;5.77;;
21114;SDS011;10715;48.546;9.896;2023-08-21T03:10:20;7.50;;;6.80;;
21114;SDS011;10715;48.546;9.896;2023-08-21T03:12:48;6.40;;;5.90;;
21114;SDS011;10715;48.546;9.896;2023-08-21T03:15:14;7.17;;;6.47;;
21114;SDS011;10715;48.546;9.896;2023-08-21T03:17:40;6.93;;;6.43;;
21114;SDS011;10715;48.546;9.896;2023-08-21T03:20:06;16.27;;;6.83;;
21114;SDS011;10715;48.546;9.896;2023-08-21T03:22:32;7.20;;;6.57;;
21114;SDS011;10715;48.546;9.896;2023-08-21T03:24:58;8.40;;;5.90;;
21114;SDS011;10715;48.546;9.896;2023-08-21T03:27:24;6.87;;;6.07;;
21114;SDS011;10715;48.546;9.896;2023-08-21T03:29:50;7.87;;;7.17;;
21114;SDS011;10715;48.546;9.896;2023-08-21T03:32:16;7.23;;;5.50;;
21114;SDS011;10715;48.546;9.896;2023-08-21T03:34:42;8.33;;;6.90;;
21114;SDS011;10715;48.546;9.896;2023-08-21T03:37:08;9.07;;;5.73;;
21114;SDS011;10715;48.546;9.896;2023-08-21T03:39:34;10.83;;;6.70;;
21114;SDS011;10715;48.546;9.896;2023-08-21T03:42:00;11.57;;;7.50;;
21114;SDS011;10715;48.546;9.896;2023-08-21T03:44:26;6.53;;;5.83;;
21114;SDS011;10715;48.546;9.896;2023-08-21T03:46:51;7.50;;;6.30;;
21114;SDS011;10715;48.546;9.896;2023-08-21T03:49:18;9.23;;;6.27;;
21114;SDS011;10715;48.546;9.896;2023-08-21T03:51:43;7.30;;;6.00;;
21114;SDS011;10715;48.546;9.896;2023-08-21T03:54:09;7.97;;;6.20;;
21114;SDS011;10715;48.546;9.896;2023-08-21T03:56:36;8.63;;;6.63;;
21114;SDS011;10715;48.546;9.896;2023-08-21T03:59:02;6.87;;;6.17;;
21114;SDS011;10715;48.546;9.896;2023-08-21T04:01:27;12.70;;;6.43;;
21114;SDS011;10715;48.546;9.896;2023-08-21T04:03:53;9.33;;;6.63;;
21114;SDS011;10715;48.546;9.896;2023-08-21T04:06:19;8.67;;;5.93;;
21114;SDS011;10715;48.546;9.896;2023-08-21T04:08:45;8.53;;;5.90;;
21114;SDS011;10715;48.546;9.896;2023-08-21T04:11:10;7.63;;;6.80;;
21114;SDS011;10715;48.546;9.896;2023-08-21T04:13:36;6.87;;;6.27;;
21114;SDS011;10715;48.546;9.896;2023-08-21T04:16:03;6.83;;;6.23;;
21114;SDS011;10715;48.546;9.896;2023-08-21T04:18:28;7.57;;;6.10;;
21114;SDS011;10715;48.546;9.896;2023-08-21T04:20:54;7.70;;;7.00;;
21114;SDS011;10715;48.546;9.896;2023-08-21T04:23:20;9.63;;;8.73;;
21114;SDS011;10715;48.546;9.896;2023-08-21T04:25:45;17.27;;;7.10;;
21114;SDS011;10715;48.546;9.896;2023-08-21T04:28:11;8.37;;;5.97;;
21114;SDS011;10715;48.546;9.896;2023-08-21T04:30:39;8.07;;;7.40;;
21114;SDS011;10715;48.546;9.896;2023-08-21T04:33:06;12.33;;;6.80;;
21114;SDS011;10715;48.546;9.896;2023-08-21T04:35:35;8.13;;;6.70;;
21114;SDS011;10715;48.546;9.896;2023-08-21T04:38:04;6.40;;;6.00;;
21114;SDS011;10715;48.546;9.896;2023-08-21T04:40:30;9.53;;;7.67;;
21114;SDS011;10715;48.546;9.896;2023-08-21T04:42:56;9.20;;;7.13;;
21114;SDS011;10715;48.546;9.896;2023-08-21T04:45:21;8.27;;;6.83;;
21114;SDS011;10715;48.546;9.896;2023-08-21T04:47:47;10.73;;;7.10;;
21114;SDS011;10715;48.546;9.896;2023-08-21T04:50:13;11.83;;;7.80;;
21114;SDS011;10715;48.546;9.896;2023-08-21T04:52:40;7.20;;;6.50;;
21114;SDS011;10715;48.546;9.896;2023-08-21T04:55:06;9.00;;;6.50;;
21114;SDS011;10715;48.546;9.896;2023-08-21T04:57:32;13.77;;;7.67;;
21114;SDS011;10715;48.546;9.896;2023-08-21T04:59:58;8.40;;;7.73;;
21114;SDS011;10715;48.546;9.896;2023-08-21T05:02:23;9.53;;;7.20;;
21114;SDS011;10715;48.546;9.896;2023-08-21T05:04:49;7.57;;;6.80;;
21114;SDS011;10715;48.546;9.896;2023-08-21T05:07:15;8.90;;;6.13;;
21114;SDS011;10715;48.546;9.896;2023-08-21T05:09:40;7.93;;;7.13;;
21114;SDS011;10715;48.546;9.896;2023-08-21T05:12:07;16.27;;;7.17;;
21114;SDS011;10715;48.546;9.896;2023-08-21T05:14:33;8.90;;;8.10;;
21114;SDS011;10715;48.546;9.896;2023-08-21T05:16:58;12.10;;;6.87;;
21114;SDS011;10715;48.546;9.896;2023-08-21T05:19:24;9.20;;;7.90;;
21114;SDS011;10715;48.546;9.896;2023-08-21T05:21:50;10.23;;;7.00;;
21114;SDS011;10715;48.546;9.896;2023-08-21T05:24:15;6.43;;;5.83;;
21114;SDS011;10715;48.546;9.896;2023-08-21T05:26:41;7.77;;;7.03;;
21114;SDS011;10715;48.546;9.896;2023-08-21T05:29:07;11.57;;;8.27;;
21114;SDS011;10715;48.546;9.896;2023-08-21T05:31:33;8.20;;;7.40;;
21114;SDS011;10715;48.546;9.896;2023-08-21T05:33:58;10.03;;;7.70;;
21114;SDS011;10715;48.546;9.896;2023-08-21T05:36:24;12.87;;;8.73;;
21114;SDS011;10715;48.546;9.896;2023-08-21T05:38:50;10.97;;;7.70;;
21114;SDS011;10715;48.546;9.896;2023-08-21T05:41:16;9.07;;;7.50;;
21114;SDS011;10715;48.546;9.896;2023-08-21T05:43:42;29.03;;;9.90;;
21114;SDS011;10715;48.546;9.896;2023-08-21T05:46:08;8.50;;;7.63;;
21114;SDS011;10715;48.546;9.896;2023-08-21T05:48:34;12.30;;;9.47;;
21114;SDS011;10715;48.546;9.896;2023-08-21T05:51:00;7.90;;;7.30;;
21114;SDS011;10715;48.546;9.896;2023-08-21T05:53:25;13.20;;;8.83;;
21114;SDS011;10715;48.546;9.896;2023-08-21T05:55:52;7.63;;;7.03;;
21114;SDS011;10715;48.546;9.896;2023-08-21T05:58:19;8.90;;;7.40;;
21114;SDS011;10715;48.546;9.896;2023-08-21T06:00:46;8.90;;;8.10;;
21114;SDS011;10715;48.546;9.896;2023-08-21T06:03:12;10.50;;;8.47;;
21114;SDS011;10715;48.546;9.896;2023-08-21T06:05:38;12.97;;;9.60;;
21114;SDS011;10715;48.546;9.896;2023-08-21T06:08:03;11.30;;;8.90;;
21114;SDS011;10715;48.546;9.896;2023-08-21T06:10:30;7.90;;;6.93;;
21114;SDS011;10715;48.546;9.896;2023-08-21T06:12:56;10.27;;;9.37;;
21114;SDS011;10715;48.546;9.896;2023-08-21T06:15:22;7.63;;;7.03;;
21114;SDS011;10715;48.546;9.896;2023-08-21T06:17:48;9.27;;;8.33;;
21114;SDS011;10715;48.546;9.896;2023-08-21T06:20:13;9.27;;;8.40;;
21114;SDS011;10715;48.546;9.896;2023-08-21T06:22:39;8.80;;;8.00;;
21114;SDS011;10715;48.546;9.896;2023-08-21T06:25:05;8.83;;;7.83;;
21114;SDS011;10715;48.546;9.896;2023-08-21T06:27:33;10.93;;;8.03;;
21114;SDS011;10715;48.546;9.896;2023-08-21T06:29:58;9.03;;;8.03;;
21114;SDS011;10715;48.546;9.896;2023-08-21T06:32:24;8.80;;;8.10;;
21114;SDS011;10715;48.546;9.896;2023-08-21T06:34:50;11.57;;;8.70;;
21114;SDS011;10715;48.546;9.896;2023-08-21T06:37:15;10.13;;;8.80;;
21114;SDS011;10715;48.546;9.896;2023-08-21T06:39:41;10.10;;;8.23;;
21114;SDS011;10715;48.546;9.896;2023-08-21T06:42:07;10.63;;;9.40;;
21114;SDS011;10715;48.546;9.896;2023-08-21T06:44:32;10.43;;;7.70;;
21114;SDS011;10715;48.546;9.896;2023-08-21T06:46:58;11.70;;;8.07;;
21114;SDS011;10715;48.546;9.896;2023-08-21T06:49:24;12.30;;;8.10;;
21114;SDS011;10715;48.546;9.896;2023-08-21T06:51:49;10.33;;;8.93;;
21114;SDS011;10715;48.546;9.896;2023-08-21T06:54:16;10.90;;;7.53;;
21114;SDS011;10715;48.546;9.896;2023-08-21T06:56:43;10.57;;;9.60;;
21114;SDS011;10715;48.546;9.896;2023-08-21T06:59:08;8.13;;;7.30;;
21114;SDS011;10715;48.546;9.896;2023-08-21T07:01:34;7.80;;;7.07;;
21114;SDS011;10715;48.546;9.896;2023-08-21T07:04:00;22.83;;;8.00;;
21114;SDS011;10715;48.546;9.896;2023-08-21T07:06:29;8.67;;;7.77;;
21114;SDS011;10715;48.546;9.896;2023-08-21T07:08:55;7.13;;;6.43;;
21114;SDS011;10715;48.546;9.896;2023-08-21T07:11:21;8.10;;;7.50;;
21114;SDS011;10715;48.546;9.896;2023-08-21T07:13:47;9.87;;;6.40;;
21114;SDS011;10715;48.546;9.896;2023-08-21T07:16:12;7.63;;;7.13;;
21114;SDS011;10715;48.546;9.896;2023-08-21T07:18:38;7.20;;;6.60;;
21114;SDS011;10715;48.546;9.896;2023-08-21T07:21:04;8.20;;;7.40;;
21114;SDS011;10715;48.546;9.896;2023-08-21T07:23:30;8.40;;;7.70;;
21114;SDS011;10715;48.546;9.896;2023-08-21T07:25:57;8.13;;;7.30;;
21114;SDS011;10715;48.546;9.896;2023-08-21T07:28:23;7.77;;;7.27;;
21114;SDS011;10715;48.546;9.896;2023-08-21T07:30:58;9.70;;;7.50;;
21114;SDS011;10715;48.546;9.896;2023-08-21T07:33:24;6.80;;;6.30;;
21114;SDS011;10715;48.546;9.896;2023-08-21T07:36:01;7.90;;;7.00;;
21114;SDS011;10715;48.546;9.896;2023-08-21T07:38:29;7.70;;;7.10;;
21114;SDS011;10715;48.546;9.896;2023-08-21T07:41:06;8.43;;;7.73;;
21114;SDS011;10715;48.546;9.896;2023-08-21T07:43:34;7.57;;;7.07;;
21114;SDS011;10715;48.546;9.896;2023-08-21T07:46:04;10.20;;;7.90;;
21114;SDS011;10715;48.546;9.896;2023-08-21T07:48:31;8.70;;;7.07;;
21114;SDS011;10715;48.546;9.896;2023-08-21T07:50:57;8.43;;;7.83;;
21114;SDS011;10715;48.546;9.896;2023-08-21T07:53:23;8.13;;;7.60;;
21114;SDS011;10715;48.546;9.896;2023-08-21T07:55:49;9.27;;;8.30;;
21114;SDS011;10715;48.546;9.896;2023-08-21T07:58:15;9.53;;;8.63;;
21114;SDS011;10715;48.546;9.896;2023-08-21T08:00:41;8.00;;;7.47;;
21114;SDS011;10715;48.546;9.896;2023-08-21T08:03:10;8.03;;;7.33;;
21114;SDS011;10715;48.546;9.896;2023-08-21T08:05:37;9.77;;;7.37;;
21114;SDS011;10715;48.546;9.896;2023-08-21T08:08:03;10.57;;;7.73;;
21114;SDS011;10715;48.546;9.896;2023-08-21T08:10:29;10.70;;;8.43;;
21114;SDS011;10715;48.546;9.896;2023-08-21T08:12:55;8.47;;;7.20;;
21114;SDS011;10715;48.546;9.896;2023-08-21T08:15:21;9.13;;;8.33;;
21114;SDS011;10715;48.546;9.896;2023-08-21T08:17:47;8.67;;;8.03;;
21114;SDS011;10715;48.546;9.896;2023-08-21T08:20:17;9.27;;;6.70;;
21114;SDS011;10715;48.546;9.896;2023-08-21T08:22:43;7.77;;;6.83;;
21114;SDS011;10715;48.546;9.896;2023-08-21T08:25:09;14.27;;;8.50;;
21114;SDS011;10715;48.546;9.896;2023-08-21T08:27:35;9.67;;;8.67;;
21114;SDS011;10715;48.546;9.896;2023-08-21T08:30:01;15.93;;;7.97;;
21114;SDS011;10715;48.546;9.896;2023-08-21T08:32:27;7.60;;;6.83;;
21114;SDS011;10715;48.546;9.896;2023-08-21T08:34:53;12.17;;;7.77;;
21114;SDS011;10715;48.546;9.896;2023-08-21T08:37:19;9.23;;;7.40;;
21114;SDS011;10715;48.546;9.896;2023-08-21T08:39:48;8.87;;;7.80;;
21114;SDS011;10715;48.546;9.896;2023-08-21T08:42:14;10.00;;;7.27;;
21114;SDS011;10715;48.546;9.896;2023-08-21T08:44:41;7.97;;;7.40;;
21114;SDS011;10715;48.546;9.896;2023-08-21T08:47:08;9.20;;;8.30;;
21114;SDS011;10715;48.546;9.896;2023-08-21T08:49:37;8.90;;;8.23;;
21114;SDS011;10715;48.546;9.896;2023-08-21T08:52:03;10.77;;;9.77;;
21114;SDS011;10715;48.546;9.896;2023-08-21T08:54:30;9.40;;;7.63;;
21114;SDS011;10715;48.546;9.896;2023-08-21T08:56:56;8.97;;;8.20;;
21114;SDS011;10715;48.546;9.896;2023-08-21T08:59:22;10.17;;;8.07;;
21114;SDS011;10715;48.546;9.896;2023-08-21T09:01:48;9.23;;;8.33;;
21114;SDS011;10715;48.546;9.896;2023-08-21T09:04:13;7.57;;;7.17;;
21114;SDS011;10715;48.546;9.896;2023-08-21T09:06:39;8.53;;;7.43;;
21114;SDS011;10715;48.546;9.896;2023-08-21T09:09:06;9.50;;;6.73;;
21114;SDS011;10715;48.546;9.896;2023-08-21T09:11:32;8.37;;;7.67;;
21114;SDS011;10715;48.546;9.896;2023-08-21T09:13:59;8.07;;;7.47;;
21114;SDS011;10715;48.546;9.896;2023-08-21T09:16:25;8.70;;;7.87;;
21114;SDS011;10715;48.546;9.896;2023-08-21T09:18:56;9.80;;;8.03;;
21114;SDS011;10715;48.546;9.896;2023-08-21T09:21:22;8.90;;;7.93;;
21114;SDS011;10715;48.546;9.896;2023-08-21T09:23:51;7.57;;;6.60;;
21114;SDS011;10715;48.546;9.896;2023-08-21T09:26:25;7.67;;;6.97;;
21114;SDS011;10715;48.546;9.896;2023-08-21T09:28:51;7.73;;;7.03;;
21114;SDS011;10715;48.546;9.896;2023-08-21T09:31:29;7.47;;;6.87;;
21114;SDS011;10715;48.546;9.896;2023-08-21T09:33:56;8.20;;;7.17;;
21114;SDS011;10715;48.546;9.896;2023-08-21T09:36:29;12.47;;;6.57;;
21114;SDS011;10715;48.546;9.896;2023-08-21T09:38:56;8.20;;;7.53;;
21114;SDS011;10715;48.546;9.896;2023-08-21T09:41:22;8.03;;;6.30;;
21114;SDS011;10715;48.546;9.896;2023-08-21T09:43:48;7.67;;;6.90;;
21114;SDS011;10715;48.546;9.896;2023-08-21T09:46:15;5.50;;;5.10;;
21114;SDS011;10715;48.546;9.896;2023-08-21T09:48:41;8.93;;;6.60;;
21114;SDS011;10715;48.546;9.896;2023-08-21T09:51:09;6.20;;;5.70;;
21114;SDS011;10715;48.546;9.896;2023-08-21T09:53:35;7.50;;;6.50;;
21114;SDS011;10715;48.546;9.896;2023-08-21T09:56:02;7.30;;;6.60;;
21114;SDS011;10715;48.546;9.896;2023-08-21T09:58:29;7.13;;;6.53;;
21114;SDS011;10715;48.546;9.896;2023-08-21T10:00:58;6.80;;;6.20;;
21114;SDS011;10715;48.546;9.896;2023-08-21T10:03:25;8.60;;;6.60;;
21114;SDS011;10715;48.546;9.896;2023-08-21T10:05:51;7.47;;;6.80;;
21114;SDS011;10715;48.546;9.896;2023-08-21T10:08:24;7.10;;;6.43;;
21114;SDS011;10715;48.546;9.896;2023-08-21T10:10:51;6.93;;;6.50;;
21114;SDS011;10715;48.546;9.896;2023-08-21T10:13:17;6.07;;;5.53;;
21114;SDS011;10715;48.546;9.896;2023-08-21T10:15:43;6.17;;;5.73;;
21114;SDS011;10715;48.546;9.896;2023-08-21T10:18:20;7.53;;;6.73;;
21114;SDS011;10715;48.546;9.896;2023-08-21T10:20:48;6.50;;;5.97;;
21114;SDS011;10715;48.546;9.896;2023-08-21T10:23:28;6.30;;;5.40;;
21114;SDS011;10715;48.546;9.896;2023-08-21T10:25:55;6.40;;;5.90;;
21114;SDS011;10715;48.546;9.896;2023-08-21T10:28:24;10.77;;;7.23;;
21114;SDS011;10715;48.546;9.896;2023-08-21T10:33:51;6.17;;;5.77;;
21114;SDS011;10715;48.546;9.896;2023-08-21T10:36:36;7.77;;;7.07;;
21114;SDS011;10715;48.546;9.896;2023-08-21T10:39:02;6.40;;;6.00;;
21114;SDS011;10715;48.546;9.896;2023-08-21T10:41:29;8.40;;;5.17;;
21114;SDS011;10715;48.546;9.896;2023-08-21T10:43:55;8.57;;;6.50;;
21114;SDS011;10715;48.546;9.896;2023-08-21T10:46:20;6.10;;;5.50;;
21114;SDS011;10715;48.546;9.896;2023-08-21T10:48:46;7.77;;;6.50;;
21114;SDS011;10715;48.546;9.896;2023-08-21T10:51:12;7.17;;;6.57;;
21114;SDS011;10715;48.546;9.896;2023-08-21T10:53:38;9.37;;;6.17;;
21114;SDS011;10715;48.546;9.896;2023-08-21T10:56:06;6.23;;;5.90;;
21114;SDS011;10715;48.546;9.896;2023-08-21T10:58:38;7.70;;;6.93;;
21114;SDS011;10715;48.546;9.896;2023-08-21T11:01:07;6.17;;;5.73;;
21114;SDS011;10715;48.546;9.896;2023-08-21T11:03:33;9.80;;;6.60;;
21114;SDS011;10715;48.546;9.896;2023-08-21T11:08:28;6.90;;;6.30;;
21114;SDS011;10715;48.546;9.896;2023-08-21T11:10:56;6.60;;;4.87;;
21114;SDS011;10715;48.546;9.896;2023-08-21T11:13:23;9.60;;;6.33;;
21114;SDS011;10715;48.546;9.896;2023-08-21T11:15:49;7.40;;;6.87;;
21114;SDS011;10715;48.546;9.896;2023-08-21T11:18:37;5.97;;;5.47;;
21114;SDS011;10715;48.546;9.896;2023-08-21T11:21:04;7.90;;;5.97;;
21114;SDS011;10715;48.546;9.896;2023-08-21T11:23:34;5.63;;;5.17;;
21114;SDS011;10715;48.546;9.896;2023-08-21T11:26:01;9.20;;;6.47;;
21114;SDS011;10715;48.546;9.896;2023-08-21T11:28:28;6.23;;;5.30;;
21114;SDS011;10715;48.546;9.896;2023-08-21T11:30:55;6.63;;;6.07;;
21114;SDS011;10715;48.546;9.896;2023-08-21T11:33:22;6.83;;;6.17;;
21114;SDS011;10715;48.546;9.896;2023-08-21T11:35:48;7.13;;;6.17;;
21114;SDS011;10715;48.546;9.896;2023-08-21T11:38:18;6.70;;;6.07;;
21114;SDS011;10715;48.546;9.896;2023-08-21T11:41:02;6.47;;;6.07;;
21114;SDS011;10715;48.546;9.896;2023-08-21T11:43:34;6.53;;;6.23;;
21114;SDS011;10715;48.546;9.896;2023-08-21T11:46:05;6.87;;;6.37;;
21114;SDS011;10715;48.546;9.896;2023-08-21T11:48:32;6.07;;;5.67;;
21114;SDS011;10715;48.546;9.896;2023-08-21T11:50:58;8.77;;;5.37;;
21114;SDS011;10715;48.546;9.896;2023-08-21T11:53:30;7.57;;;6.97;;
21114;SDS011;10715;48.546;9.896;2023-08-21T11:56:08;6.10;;;5.70;;
21114;SDS011;10715;48.546;9.896;2023-08-21T11:58:39;7.30;;;6.60;;
21114;SDS011;10715;48.546;9.896;2023-08-21T12:01:06;6.13;;;5.63;;
21114;SDS011;10715;48.546;9.896;2023-08-21T12:03:40;6.87;;;6.40;;
21114;SDS011;10715;48.546;9.896;2023-08-21T12:06:10;11.20;;;6.97;;
21114;SDS011;10715;48.546;9.896;2023-08-21T12:08:37;6.87;;;5.20;;
21114;SDS011;10715;48.546;9.896;2023-08-21T12:11:04;6.67;;;6.20;;
21114;SDS011;10715;48.546;9.896;2023-08-21T12:13:30;5.90;;;5.40;;
21114;SDS011;10715;48.546;9.896;2023-08-21T12:15:56;9.83;;;6.83;;
21114;SDS011;10715;48.546;9.896;2023-08-21T12:18:22;7.10;;;5.90;;
21114;SDS011;10715;48.546;9.896;2023-08-21T12:20:48;6.63;;;6.13;;
21114;SDS011;10715;48.546;9.896;2023-08-21T12:23:14;6.17;;;5.60;;
21114;SDS011;10715;48.546;9.896;2023-08-21T12:25:40;13.87;;;5.67;;
21114;SDS011;10715;48.546;9.896;2023-08-21T12:28:06;8.13;;;6.07;;
21114;SDS011;10715;48.546;9.896;2023-08-21T12:30:33;6.63;;;5.20;;
21114;SDS011;10715;48.546;9.896;2023-08-21T12:32:59;6.30;;;5.80;;
21114;SDS011;10715;48.546;9.896;2023-08-21T12:35:25;11.03;;;5.83;;
21114;SDS011;10715;48.546;9.896;2023-08-21T12:37:50;6.30;;;5.90;;
21114;SDS011;10715;48.546;9.896;2023-08-21T12:40:21;5.87;;;5.23;;
21114;SDS011;10715;48.546;9.896;2023-08-21T12:42:46;6.73;;;6.07;;
21114;SDS011;10715;48.546;9.896;2023-08-21T12:45:12;7.10;;;4.80;;
21114;SDS011;10715;48.546;9.896;2023-08-21T12:47:38;6.40;;;5.90;;
21114;SDS011;10715;48.546;9.896;2023-08-21T12:50:04;13.73;;;6.53;;
21114;SDS011;10715;48.546;9.896;2023-08-21T12:52:31;7.33;;;5.53;;
21114;SDS011;10715;48.546;9.896;2023-08-21T12:54:56;8.60;;;5.63;;
21114;SDS011;10715;48.546;9.896;2023-08-21T12:57:22;6.73;;;5.90;;
21114;SDS011;10715;48.546;9.896;2023-08-21T12:59:48;7.70;;;5.83;;
21114;SDS011;10715;48.546;9.896;2023-08-21T13:02:14;5.67;;;5.13;;
21114;SDS011;10715;48.546;9.896;2023-08-21T13:04:39;7.90;;;6.13;;
21114;SDS011;10715;48.546;9.896;2023-08-21T13:07:05;8.40;;;6.00;;
21114;SDS011;10715;48.546;9.896;2023-08-21T13:09:31;5.57;;;4.97;;
21114;SDS011;10715;48.546;9.896;2023-08-21T13:11:57;7.00;;;6.40;;
21114;SDS011;10715;48.546;9.896;2023-08-21T13:14:23;6.73;;;6.23;;
21114;SDS011;10715;48.546;9.896;2023-08-21T13:16:49;6.83;;;5.27;;
21114;SDS011;10715;48.546;9.896;2023-08-21T13:19:14;6.90;;;5.40;;
21114;SDS011;10715;48.546;9.896;2023-08-21T13:21:40;12.03;;;6.00;;
21114;SDS011;10715;48.546;9.896;2023-08-21T13:24:06;5.40;;;4.90;;
21114;SDS011;10715;48.546;9.896;2023-08-21T13:26:32;5.77;;;5.20;;
21114;SDS011;10715;48.546;9.896;2023-08-21T13:28:58;7.17;;;5.70;;
21114;SDS011;10715;48.546;9.896;2023-08-21T13:31:24;5.87;;;5.47;;
21114;SDS011;10715;48.546;9.896;2023-08-21T13:33:50;7.00;;;6.40;;
21114;SDS011;10715;48.546;9.896;2023-08-21T13:36:16;6.20;;;5.70;;
21114;SDS011;10715;48.546;9.896;2023-08-21T13:38:43;6.60;;;6.07;;
21114;SDS011;10715;48.546;9.896;2023-08-21T13:41:09;6.17;;;5.67;;
21114;SDS011;10715;48.546;9.896;2023-08-21T13:43:36;7.93;;;5.37;;
21114;SDS011;10715;48.546;9.896;2023-08-21T13:46:02;5.93;;;5.30;;
21114;SDS011;10715;48.546;9.896;2023-08-21T13:48:31;6.57;;;6.10;;
21114;SDS011;10715;48.546;9.896;2023-08-21T13:50:57;5.07;;;4.77;;
21114;SDS011;10715;48.546;9.896;2023-08-21T13:53:23;6.60;;;6.10;;
21114;SDS011;10715;48.546;9.896;2023-08-21T13:55:52;5.97;;;4.67;;
21114;SDS011;10715;48.546;9.896;2023-08-21T13:58:18;9.17;;;6.00;;
21114;SDS011;10715;48.546;9.896;2023-08-21T14:00:43;5.83;;;5.47;;
21114;SDS011;10715;48.546;9.896;2023-08-21T14:03:09;5.93;;;5.50;;
21114;SDS011;10715;48.546;9.896;2023-08-21T14:05:35;5.20;;;4.80;;
21114;SDS011;10715;48.546;9.896;2023-08-21T14:08:01;6.37;;;5.60;;
21114;SDS011;10715;48.546;9.896;2023-08-21T14:10:28;7.83;;;6.50;;
21114;SDS011;10715;48.546;9.896;2023-08-21T14:12:55;6.50;;;5.90;;
21114;SDS011;10715;48.546;9.896;2023-08-21T14:15:22;5.67;;;5.30;;
21114;SDS011;10715;48.546;9.896;2023-08-21T14:17:48;4.70;;;4.47;;
21114;SDS011;10715;48.546;9.896;2023-08-21T14:20:14;5.50;;;5.10;;
21114;SDS011;10715;48.546;9.896;2023-08-21T14:22:40;5.30;;;5.00;;
21114;SDS011;10715;48.546;9.896;2023-08-21T14:25:06;6.10;;;5.63;;
21114;SDS011;10715;48.546;9.896;2023-08-21T14:27:33;4.90;;;4.43;;
21114;SDS011;10715;48.546;9.896;2023-08-21T14:29:59;8.70;;;5.37;;
21114;SDS011;10715;48.546;9.896;2023-08-21T14:32:24;6.27;;;5.67;;
21114;SDS011;10715;48.546;9.896;2023-08-21T14:34:51;6.13;;;4.90;;
21114;SDS011;10715;48.546;9.896;2023-08-21T14:37:18;5.17;;;4.73;;
21114;SDS011;10715;48.546;9.896;2023-08-21T14:39:46;5.27;;;4.87;;
21114;SDS011;10715;48.546;9.896;2023-08-21T14:42:12;5.67;;;5.27;;
21114;SDS011;10715;48.546;9.896;2023-08-21T14:44:38;7.27;;;4.83;;
21114;SDS011;10715;48.546;9.896;2023-08-21T14:47:04;6.10;;;5.57;;
21114;SDS011;10715;48.546;9.896;2023-08-21T14:49:30;5.80;;;5.40;;
21114;SDS011;10715;48.546;9.896;2023-08-21T14:51:57;5.90;;;5.40;;